Accueil
METAR-TAF:

METAR-TAF

Aéroports :

Aurora State Airport

Aurora, Oregon, États-Unis

latitude: 45-14-56N, longitude: 122-45-56W, altitude: 59 m

Observation

Le bulletin a été fait il y a 1 heure et 12 minutes, à 04:53 UTC
Vent 4 kt de nord/nord-est
Température 13°C
Humidité 51%
Pression 1022 hPa
Visibilité: 16.1 km
Ciel clair

METAR: KUAO 250453Z AUTO 02004KT 10SM CLR 13/03 A3019 RMK AO2 SLP222 T01330033

Heure: 23:05 (06:05 UTC)

Prévision

Le bulletin a été fait il y a 45 minutes, à 05:20 UTC
Prévision valable du 25 à 06 UTC au 26 à 06 UTC
Vent 9 kt de nord
Visibilité: 10 km
Ciel clair
A partir de 25 à 0900 UTC
Vent 5 kt de nord/nord-est
Visibilité: 10 km
Ciel clair
A partir de 25 à 2200 UTC
Vent 5 kt de nord
Visibilité: 10 km
Nuages épars à une hauteur de 25000 ft

TAF: KUAO 250520Z 2506/2606 36009KT P6SM SKC FM250900 02005KT P6SM SKC FM252200 36005KT P6SM SCT250

Observations et prévisions météorologiques de plus de 4000 aéroports (messages METAR et TAF).

Les stations disponibles sont représentées par des disques jaunes et rouges sur la carte.

Passer la souris dessus pour voir le nom de la station.

Cliquer dessus pour voir les observations et prévisions météorologiques.

Pour changer de carte: cliquez sur les boutons verts avec une croix noire pour zoomer, sur le bouton vert avec un tiret pour effectuer un zoom arrière, ou sur les flèches vertes pour les cartes adjacentes.


METAR-TAF: